Time;durP1;ratioP1;P1;durP2;ratioP2;P2;SDS_P1;SDS_P2;PMS_P1;PMS_P2;Temp;Humidity;BMP_temperature;BMP_pressure;BME280_temperature;BME280_humidity;BME280_pressure;Samples;Min_cycle;Max_cycle;Signal;HPM_P1;HPM_P2
2021/05/07 00:01:29;;;;;;;10.00;5.80;;;7.80;91.30;;;;;;5045939;28;20020;-84
2021/05/07 00:03:55;;;;;;;9.57;6.00;;;7.80;91.30;;;;;;5056233;28;20059;-84
2021/05/07 00:06:20;;;;;;;10.73;6.75;;;7.80;91.30;;;;;;5037596;28;20032;-84
2021/05/07 00:08:46;;;;;;;8.73;5.97;;;7.70;91.20;;;;;;5059659;28;20446;-84
2021/05/07 00:11:15;;;;;;;8.98;5.90;;;7.70;91.40;;;;;;5059601;28;20477;-84
2021/05/07 00:13:41;;;;;;;10.88;6.30;;;7.70;91.40;;;;;;5032303;28;20037;-84
2021/05/07 00:16:07;;;;;;;11.00;6.65;;;7.70;91.60;;;;;;5057002;28;20102;-84
2021/05/07 00:18:33;;;;;;;9.40;5.75;;;7.70;91.70;;;;;;5076604;28;20373;-84
2021/05/07 00:20:59;;;;;;;9.93;6.63;;;7.70;91.60;;;;;;5058790;28;20797;-84
2021/05/07 00:23:25;;;;;;;11.38;6.55;;;7.60;91.50;;;;;;5059595;28;20120;-84
2021/05/07 00:25:52;;;;;;;10.07;6.57;;;7.60;91.40;;;;;;5045808;28;20111;-84
2021/05/07 00:28:20;;;;;;;10.18;6.85;;;7.50;91.30;;;;;;5074253;28;20077;-84
2021/05/07 00:30:47;;;;;;;10.73;6.35;;;7.50;91.30;;;;;;5052586;28;20039;-84
2021/05/07 00:33:12;;;;;;;8.98;6.57;;;7.50;91.50;;;;;;5055548;28;20135;-84
2021/05/07 00:35:38;;;;;;;10.07;6.47;;;7.50;91.40;;;;;;5039495;28;20127;-84
2021/05/07 00:38:04;;;;;;;12.15;6.22;;;7.50;91.40;;;;;;5053439;28;20024;-84
2021/05/07 00:40:31;;;;;;;15.40;7.18;;;7.40;91.50;;;;;;5033460;28;20063;-84
2021/05/07 00:42:57;;;;;;;8.40;6.10;;;7.40;91.50;;;;;;5050440;28;20488;-83
2021/05/07 00:45:23;;;;;;;8.82;6.15;;;7.30;91.60;;;;;;5080151;28;20099;-84
2021/05/07 00:47:57;;;;;;;11.50;6.50;;;7.30;91.40;;;;;;5057736;28;20123;-84
2021/05/07 00:50:31;;;;;;;8.98;6.07;;;7.30;91.50;;;;;;5055747;28;20029;-84
2021/05/07 00:52:58;;;;;;;7.72;5.88;;;7.30;91.50;;;;;;5039270;28;20412;-84
2021/05/07 00:55:25;;;;;;;10.27;6.00;;;7.20;91.50;;;;;;5039031;28;20036;-84
2021/05/07 00:57:51;;;;;;;10.15;5.68;;;7.20;91.50;;;;;;5047325;28;20116;-84
2021/05/07 01:00:17;;;;;;;8.98;5.57;;;7.20;91.40;;;;;;5071443;28;20023;-84
2021/05/07 01:02:43;;;;;;;8.02;5.85;;;7.10;91.30;;;;;;5060561;28;20389;-84
2021/05/07 01:05:09;;;;;;;9.13;6.05;;;7.10;91.20;;;;;;5064165;28;20081;-84
2021/05/07 01:07:36;;;;;;;9.52;6.47;;;7.00;91.10;;;;;;5046118;28;20040;-84
2021/05/07 01:10:05;;;;;;;8.45;6.07;;;7.00;91.30;;;;;;5047268;28;20029;-84
2021/05/07 01:12:30;;;;;;;8.20;5.90;;;6.90;91.40;;;;;;5040107;28;20033;-84
2021/05/07 01:15:16;;;;;;;9.52;6.15;;;6.90;91.60;;;;;;5052296;28;20111;-84
2021/05/07 01:17:47;;;;;;;12.73;8.23;;;6.90;91.90;;;;;;5042260;28;20071;-84
2021/05/07 01:20:14;;;;;;;13.48;7.93;;;6.80;92.10;;;;;;5053359;28;20115;-84
2021/05/07 01:22:41;;;;;;;12.80;8.68;;;6.80;92.10;;;;;;5038590;28;20025;-84
2021/05/07 01:25:08;;;;;;;10.50;7.18;;;6.80;92.20;;;;;;5042519;28;20032;-84
2021/05/07 01:27:37;;;;;;;12.60;7.50;;;6.80;91.90;;;;;;5052989;28;20105;-84
2021/05/07 01:30:24;;;;;;;11.05;6.82;;;6.80;91.90;;;;;;5046647;28;20032;-84
2021/05/07 01:32:51;;;;;;;10.10;6.28;;;6.70;92.20;;;;;;5054938;28;20035;-84
2021/05/07 01:35:26;;;;;;;10.07;7.13;;;6.70;92.10;;;;;;5038599;28;20076;-84
2021/05/07 01:37:55;;;;;;;10.90;6.65;;;6.70;92.00;;;;;;5066832;28;20390;-84
2021/05/07 01:40:45;;;;;;;9.05;6.28;;;6.70;92.30;;;;;;5043905;28;20055;-84
2021/05/07 01:43:11;;;;;;;7.45;5.63;;;6.60;92.30;;;;;;5007282;28;20029;-84
2021/05/07 01:45:38;;;;;;;9.85;6.32;;;6.60;92.20;;;;;;5048359;28;20107;-84
2021/05/07 01:48:05;;;;;;;14.57;7.90;;;6.60;92.30;;;;;;5048716;28;20024;-84
2021/05/07 01:50:33;;;;;;;13.02;7.68;;;6.60;92.40;;;;;;5030055;28;20044;-84
2021/05/07 01:52:59;;;;;;;13.90;8.90;;;6.60;92.30;;;;;;5054739;28;20026;-84
2021/05/07 01:55:30;;;;;;;15.75;7.70;;;6.50;92.40;;;;;;5044175;28;20033;-84
2021/05/07 01:57:57;;;;;;;11.85;7.15;;;6.50;92.40;;;;;;5035017;28;20505;-84
2021/05/07 02:00:25;;;;;;;9.88;6.97;;;6.50;92.50;;;;;;5026392;28;20040;-84
2021/05/07 02:02:52;;;;;;;12.63;7.30;;;6.50;92.50;;;;;;5072347;28;20016;-84
2021/05/07 02:05:19;;;;;;;8.18;5.82;;;6.50;92.60;;;;;;5084613;28;20504;-84
2021/05/07 02:07:46;;;;;;;10.00;6.13;;;6.50;92.60;;;;;;5074441;28;20024;-84
2021/05/07 02:10:15;;;;;;;9.23;6.03;;;6.40;92.50;;;;;;5069223;28;20025;-84
2021/05/07 02:12:40;;;;;;;9.25;6.70;;;6.40;92.40;;;;;;5054668;28;20504;-84
2021/05/07 02:15:16;;;;;;;9.85;6.40;;;6.40;92.40;;;;;;5040941;28;20031;-83
2021/05/07 02:17:42;;;;;;;12.02;6.28;;;6.40;92.40;;;;;;5092618;28;20024;-84
2021/05/07 02:20:10;;;;;;;11.57;6.50;;;6.30;92.30;;;;;;5074171;28;20031;-84
2021/05/07 02:22:36;;;;;;;9.18;6.30;;;6.30;92.50;;;;;;5041383;28;20435;-84
2021/05/07 02:25:03;;;;;;;9.18;6.10;;;6.20;92.20;;;;;;5042162;28;20054;-84
2021/05/07 02:27:28;;;;;;;9.38;6.75;;;6.10;92.60;;;;;;5054313;28;20044;-84
2021/05/07 02:29:54;;;;;;;9.10;6.25;;;6.10;93.00;;;;;;5024501;28;20474;-84
2021/05/07 02:32:20;;;;;;;10.30;7.28;;;6.10;93.00;;;;;;5042443;28;20028;-84
2021/05/07 02:34:46;;;;;;;9.80;6.88;;;6.10;93.10;;;;;;5046389;28;20028;-84
2021/05/07 02:37:12;;;;;;;12.77;7.00;;;6.10;93.20;;;;;;5053891;28;20033;-84
2021/05/07 02:39:37;;;;;;;10.90;7.25;;;6.10;93.10;;;;;;5054040;28;20056;-84
2021/05/07 02:42:03;;;;;;;10.13;7.15;;;6.10;93.10;;;;;;5056350;28;20468;-84
2021/05/07 02:44:29;;;;;;;8.98;7.07;;;6.10;93.10;;;;;;5063538;28;20110;-84
2021/05/07 02:47:02;;;;;;;9.88;6.60;;;6.00;92.90;;;;;;5048309;28;20570;-84
2021/05/07 02:49:29;;;;;;;10.60;6.85;;;6.00;92.70;;;;;;5044857;28;20036;-84
2021/05/07 02:51:54;;;;;;;9.65;6.70;;;5.90;92.80;;;;;;5070658;28;20100;-84
2021/05/07 02:54:20;;;;;;;9.68;7.05;;;5.90;93.00;;;;;;5044762;28;20054;-84
2021/05/07 02:56:45;;;;;;;10.63;6.95;;;5.90;92.90;;;;;;5044865;28;20059;-84
2021/05/07 02:59:14;;;;;;;9.45;7.10;;;5.90;92.90;;;;;;5078234;28;20142;-84
2021/05/07 03:01:40;;;;;;;10.60;7.03;;;5.80;93.00;;;;;;5057222;28;20852;-84
2021/05/07 03:04:08;;;;;;;10.95;7.00;;;5.80;93.00;;;;;;5048563;23;20409;-84
2021/05/07 03:06:34;;;;;;;9.73;7.28;;;5.80;93.30;;;;;;5054808;28;20389;-84
2021/05/07 03:09:00;;;;;;;10.15;7.82;;;5.80;93.70;;;;;;5035164;28;20021;-84
2021/05/07 03:11:26;;;;;;;14.73;7.10;;;5.80;93.80;;;;;;5053220;28;20527;-84
2021/05/07 03:13:53;;;;;;;10.20;7.43;;;5.90;93.70;;;;;;5040754;28;20062;-84
2021/05/07 03:16:21;;;;;;;15.13;7.93;;;5.90;93.50;;;;;;5075358;28;20044;-84
2021/05/07 03:18:48;;;;;;;10.32;7.28;;;5.90;93.70;;;;;;5039866;28;20107;-84
2021/05/07 03:21:14;;;;;;;11.55;7.07;;;5.90;94.20;;;;;;5077469;28;20020;-84
2021/05/07 03:23:40;;;;;;;12.80;7.55;;;5.90;93.80;;;;;;5060860;28;20093;-84
2021/05/07 03:26:11;;;;;;;11.07;7.70;;;5.90;93.90;;;;;;5046942;28;20094;-84
2021/05/07 03:28:39;;;;;;;9.75;7.40;;;5.90;93.90;;;;;;5027196;28;20385;-84
2021/05/07 03:31:05;;;;;;;10.18;7.60;;;6.00;94.10;;;;;;5024712;28;20473;-84
2021/05/07 03:33:31;;;;;;;11.63;8.82;;;6.00;94.10;;;;;;5056983;28;20028;-84
2021/05/07 03:35:56;;;;;;;11.70;9.07;;;6.00;94.20;;;;;;5024055;28;20033;-84
2021/05/07 03:38:22;;;;;;;14.18;9.80;;;6.10;94.30;;;;;;5023648;28;20036;-84
2021/05/07 03:40:48;;;;;;;15.07;9.30;;;6.10;94.30;;;;;;5024046;28;20025;-84
2021/05/07 03:43:13;;;;;;;12.02;9.18;;;6.10;94.40;;;;;;5020719;28;20021;-83
2021/05/07 03:45:39;;;;;;;11.10;8.65;;;6.10;94.50;;;;;;5040264;28;20025;-84
2021/05/07 03:48:17;;;;;;;12.18;8.85;;;6.20;94.50;;;;;;5020630;28;20033;-84
2021/05/07 03:50:43;;;;;;;12.15;9.32;;;6.20;94.50;;;;;;5042959;28;20024;-84
2021/05/07 03:53:16;;;;;;;10.75;8.18;;;6.20;94.40;;;;;;5023807;28;20051;-83
2021/05/07 03:55:45;;;;;;;13.07;8.93;;;6.20;94.20;;;;;;5056857;28;20452;-84
2021/05/07 03:58:11;;;;;;;11.70;9.07;;;6.30;94.20;;;;;;5056728;28;20037;-84
2021/05/07 04:00:38;;;;;;;13.93;8.75;;;6.30;94.20;;;;;;5074689;28;20024;-84
2021/05/07 04:03:05;;;;;;;11.18;8.85;;;6.30;94.20;;;;;;5059652;28;20385;-84
2021/05/07 04:05:31;;;;;;;14.20;9.43;;;6.30;94.40;;;;;;5072942;28;20041;-84
2021/05/07 04:10:31;;;;;;;12.68;9.85;;;6.30;94.30;;;;;;5073484;28;20536;-84
2021/05/07 04:15:23;;;;;;;14.38;10.32;;;6.40;94.50;;;;;;5073628;28;20036;-83
2021/05/07 04:17:48;;;;;;;13.65;9.77;;;6.30;94.40;;;;;;5058127;28;20021;-84
2021/05/07 04:20:14;;;;;;;10.57;7.68;;;6.30;94.60;;;;;;5023377;28;20093;-84
2021/05/07 04:22:40;;;;;;;10.13;6.43;;;6.30;94.40;;;;;;5039564;28;20102;-84
2021/05/07 04:25:07;;;;;;;10.77;5.00;;;6.20;94.40;;;;;;5056398;28;20103;-84
2021/05/07 04:27:33;;;;;;;8.85;4.47;;;6.10;94.30;;;;;;5039364;28;20509;-84
2021/05/07 04:30:00;;;;;;;6.93;4.38;;;6.10;94.50;;;;;;5056128;28;20016;-84
2021/05/07 04:32:26;;;;;;;6.57;4.35;;;6.10;94.90;;;;;;5027621;28;20024;-84
2021/05/07 04:34:51;;;;;;;7.43;3.58;;;6.00;95.00;;;;;;5038037;28;20039;-84
2021/05/07 04:37:20;;;;;;;7.68;3.67;;;6.00;94.80;;;;;;5039304;28;20025;-84
2021/05/07 04:39:46;;;;;;;6.10;3.22;;;5.90;94.90;;;;;;5039369;28;20426;-84
2021/05/07 04:42:11;;;;;;;5.22;3.08;;;5.90;94.80;;;;;;5039438;28;20070;-84
2021/05/07 04:44:37;;;;;;;4.20;2.45;;;5.90;94.80;;;;;;5039143;28;20024;-83
2021/05/07 04:47:03;;;;;;;5.78;2.60;;;5.80;95.00;;;;;;5019665;28;20455;-84
2021/05/07 04:49:29;;;;;;;6.32;2.70;;;5.80;95.10;;;;;;5065579;28;20033;-84
2021/05/07 04:51:54;;;;;;;4.28;2.45;;;5.80;95.30;;;;;;5056452;28;20020;-84
2021/05/07 04:54:21;;;;;;;4.82;2.97;;;5.80;95.30;;;;;;5056117;28;20048;-84
2021/05/07 04:56:47;;;;;;;4.60;2.47;;;5.70;95.30;;;;;;5039497;28;20071;-84
2021/05/07 04:59:12;;;;;;;4.88;2.92;;;5.70;95.50;;;;;;5055948;28;20031;-84
2021/05/07 05:01:38;;;;;;;5.78;3.42;;;5.70;95.50;;;;;;5036926;28;20025;-84
2021/05/07 05:04:04;;;;;;;8.48;3.97;;;5.70;95.50;;;;;;5022556;28;20103;-83
2021/05/07 05:06:30;;;;;;;6.53;3.30;;;5.70;95.50;;;;;;5038822;28;20047;-84
2021/05/07 05:08:55;;;;;;;5.97;3.10;;;5.60;95.50;;;;;;5019256;28;20025;-84
2021/05/07 05:11:21;;;;;;;5.00;3.30;;;5.60;95.60;;;;;;5022483;28;20058;-84
2021/05/07 05:13:46;;;;;;;6.43;3.20;;;5.50;95.60;;;;;;5055778;28;20078;-83
2021/05/07 05:16:12;;;;;;;6.68;3.58;;;5.40;95.60;;;;;;5038807;28;20099;-83
2021/05/07 05:18:39;;;;;;;6.28;3.40;;;5.30;95.80;;;;;;5038643;28;20078;-83
2021/05/07 05:21:06;;;;;;;5.65;3.53;;;5.20;95.80;;;;;;5038920;28;20440;-83
2021/05/07 05:23:33;;;;;;;5.75;3.10;;;5.00;96.00;;;;;;5055974;28;20021;-83
2021/05/07 05:25:59;;;;;;;6.43;3.17;;;4.90;96.40;;;;;;5020581;28;20364;-83
2021/05/07 05:28:26;;;;;;;5.03;2.85;;;4.80;96.40;;;;;;5042119;28;20027;-81
2021/05/07 05:30:52;;;;;;;3.90;2.80;;;4.70;96.50;;;;;;5059029;28;20086;-83
2021/05/07 05:33:18;;;;;;;5.30;2.72;;;4.70;96.80;;;;;;5073354;28;20096;-83
2021/05/07 05:35:56;;;;;;;4.97;3.20;;;4.60;96.90;;;;;;5039061;28;20116;-84
2021/05/07 05:38:22;;;;;;;5.50;3.17;;;4.60;96.80;;;;;;5073213;28;20025;-84
2021/05/07 05:40:47;;;;;;;5.68;3.20;;;4.70;97.00;;;;;;5038771;28;20046;-84
2021/05/07 05:43:14;;;;;;;6.88;3.78;;;4.70;97.20;;;;;;5072071;28;20532;-84
2021/05/07 05:45:40;;;;;;;7.75;3.97;;;4.80;97.40;;;;;;5092474;28;20103;-84
2021/05/07 05:48:10;;;;;;;6.50;3.95;;;4.80;97.50;;;;;;5038533;28;20063;-84
2021/05/07 05:50:36;;;;;;;6.65;4.38;;;4.90;97.50;;;;;;5054954;28;20376;-84
2021/05/07 05:53:02;;;;;;;5.35;3.25;;;5.00;97.60;;;;;;5038535;28;20032;-84
2021/05/07 05:55:28;;;;;;;5.00;3.17;;;5.00;97.50;;;;;;5018541;28;20128;-84
2021/05/07 05:57:54;;;;;;;4.90;2.78;;;5.10;97.60;;;;;;5037758;28;20039;-84
2021/05/07 06:00:21;;;;;;;5.70;2.60;;;5.10;97.50;;;;;;5054611;28;20086;-84
2021/05/07 06:02:47;;;;;;;4.78;2.65;;;5.10;97.60;;;;;;5055018;28;20048;-84
2021/05/07 06:05:14;;;;;;;5.45;2.70;;;5.10;97.40;;;;;;5023849;28;20084;-84
2021/05/07 06:07:40;;;;;;;5.97;2.83;;;5.10;97.50;;;;;;5054984;28;20017;-84
2021/05/07 06:10:08;;;;;;;5.60;2.53;;;5.10;97.50;;;;;;5054863;28;20108;-84
2021/05/07 06:12:34;;;;;;;4.63;2.72;;;5.10;97.60;;;;;;5037750;28;20033;-84
2021/05/07 06:15:00;;;;;;;4.05;2.20;;;5.20;97.70;;;;;;5040889;28;20497;-84
2021/05/07 06:17:26;;;;;;;4.45;2.40;;;5.20;97.70;;;;;;5019710;28;20285;-84
2021/05/07 06:19:52;;;;;;;3.92;2.13;;;5.30;97.80;;;;;;5037154;28;20024;-84
2021/05/07 06:22:18;;;;;;;5.30;2.50;;;5.30;97.80;;;;;;5054700;28;20378;-83
2021/05/07 06:24:44;;;;;;;3.17;2.15;;;5.40;98.10;;;;;;5034784;28;20024;-83
2021/05/07 06:27:09;;;;;;;4.43;2.40;;;5.40;98.10;;;;;;5067051;28;20035;-84
2021/05/07 06:29:35;;;;;;;5.00;2.22;;;5.40;98.00;;;;;;5050218;28;20028;-83
2021/05/07 06:32:19;;;;;;;3.83;2.40;;;5.40;98.00;;;;;;5056848;28;20035;-83
2021/05/07 06:34:55;;;;;;;3.28;2.05;;;5.50;98.10;;;;;;5037384;28;20107;-83
2021/05/07 06:37:21;;;;;;;5.55;2.60;;;5.50;98.20;;;;;;5054600;28;20485;-83
2021/05/07 06:39:46;;;;;;;4.25;2.30;;;5.60;98.30;;;;;;5021456;28;20115;-83
2021/05/07 06:42:12;;;;;;;4.05;2.50;;;5.60;98.40;;;;;;5037018;28;20470;-83
2021/05/07 06:44:38;;;;;;;6.13;3.10;;;5.60;98.20;;;;;;5021113;28;20035;-83
2021/05/07 06:47:04;;;;;;;5.28;3.10;;;5.60;98.40;;;;;;5054266;28;20075;-83
2021/05/07 06:49:29;;;;;;;4.55;2.83;;;5.70;98.40;;;;;;5021279;28;20028;-82
2021/05/07 06:51:55;;;;;;;4.22;2.45;;;5.80;98.40;;;;;;5053914;28;20113;-83
2021/05/07 06:54:26;;;;;;;3.78;2.30;;;5.90;98.60;;;;;;5037904;28;20408;-83
2021/05/07 06:56:55;;;;;;;4.97;2.50;;;5.90;98.70;;;;;;5020634;28;20031;-83
2021/05/07 06:59:21;;;;;;;3.67;2.42;;;6.00;98.60;;;;;;5053288;28;20417;-83
2021/05/07 07:01:47;;;;;;;5.32;2.47;;;6.10;98.70;;;;;;5053150;28;20036;-83
2021/05/07 07:04:13;;;;;;;3.50;2.40;;;6.10;98.80;;;;;;5053659;28;20119;-83
2021/05/07 07:06:38;;;;;;;6.03;2.90;;;6.20;98.60;;;;;;5036092;28;20095;-83
2021/05/07 07:09:04;;;;;;;5.80;2.88;;;6.30;98.70;;;;;;5037346;28;20437;-83
2021/05/07 07:11:30;;;;;;;5.78;3.00;;;6.30;98.70;;;;;;5040885;28;20033;-83
2021/05/07 07:13:56;;;;;;;4.60;2.88;;;6.40;98.80;;;;;;5029331;28;20025;-84
2021/05/07 07:16:21;;;;;;;7.90;3.78;;;6.50;98.80;;;;;;5024030;28;20388;-83
2021/05/07 07:18:47;;;;;;;6.00;3.72;;;6.60;98.90;;;;;;5063555;28;20466;-83
2021/05/07 07:21:12;;;;;;;5.38;3.70;;;6.70;98.90;;;;;;5020948;28;20116;-83
2021/05/07 07:23:38;;;;;;;5.50;4.07;;;6.80;99.00;;;;;;5041804;28;20034;-83
2021/05/07 07:26:05;;;;;;;6.35;4.22;;;6.90;99.40;;;;;;5057383;28;20021;-83
2021/05/07 07:28:38;;;;;;;6.10;4.53;;;7.00;98.90;;;;;;5041901;28;20058;-82
2021/05/07 07:31:04;;;;;;;5.97;4.15;;;7.00;98.90;;;;;;5068414;28;20055;-82
2021/05/07 07:33:31;;;;;;;7.13;4.45;;;7.10;98.90;;;;;;5042754;28;20028;-82
2021/05/07 07:35:57;;;;;;;6.45;4.53;;;7.20;98.90;;;;;;5063822;28;20023;-82
2021/05/07 07:38:23;;;;;;;6.65;4.47;;;7.30;99.00;;;;;;5020779;28;20024;-82
2021/05/07 07:40:50;;;;;;;6.43;4.40;;;7.40;98.90;;;;;;5060723;28;20087;-82
2021/05/07 07:43:17;;;;;;;6.03;4.30;;;7.50;99.10;;;;;;5042966;28;20158;-82
2021/05/07 07:45:42;;;;;;;5.95;3.80;;;7.50;99.00;;;;;;5068662;28;20027;-82
2021/05/07 07:48:08;;;;;;;5.70;4.10;;;7.60;99.00;;;;;;5060583;28;20032;-83
2021/05/07 07:50:34;;;;;;;5.85;4.43;;;7.70;99.10;;;;;;5028748;28;20071;-82
2021/05/07 07:53:00;;;;;;;6.15;4.03;;;7.80;99.10;;;;;;5040650;28;20040;-82
2021/05/07 07:55:26;;;;;;;10.15;5.45;;;7.80;98.80;;;;;;5074615;28;20103;-82
2021/05/07 07:57:51;;;;;;;6.60;4.72;;;7.90;99.10;;;;;;5044975;28;20028;-83
2021/05/07 08:00:17;;;;;;;6.53;4.30;;;8.00;99.20;;;;;;5037196;28;20029;-83
2021/05/07 08:02:49;;;;;;;8.43;5.40;;;8.10;98.80;;;;;;5018050;28;20033;-83
2021/05/07 08:05:15;;;;;;;5.90;4.32;;;8.10;98.90;;;;;;5043627;28;20045;-84
2021/05/07 08:07:42;;;;;;;8.93;5.28;;;8.20;98.80;;;;;;5057092;28;20206;-84
2021/05/07 08:10:08;;;;;;;6.35;4.85;;;8.30;99.00;;;;;;5039174;28;20135;-84
2021/05/07 08:12:34;;;;;;;6.55;4.90;;;8.30;98.60;;;;;;5056253;28;20024;-85
2021/05/07 08:18:22;;;;;;;7.25;5.22;;;8.50;98.90;;;;;;5071641;28;20123;-85
2021/05/07 08:20:48;;;;;;;7.50;4.78;;;8.60;99.10;;;;;;5040008;28;20485;-86
2021/05/07 08:23:13;;;;;;;6.07;4.68;;;8.70;98.50;;;;;;5057973;28;20028;-84
2021/05/07 08:25:39;;;;;;;6.95;4.40;;;8.80;98.50;;;;;;5038581;28;20025;-84
2021/05/07 08:28:04;;;;;;;8.00;5.70;;;8.80;98.60;;;;;;5046623;28;20448;-84
2021/05/07 08:30:30;;;;;;;6.45;4.15;;;8.90;98.70;;;;;;5037519;28;20059;-83
2021/05/07 08:32:56;;;;;;;6.60;4.28;;;9.00;98.10;;;;;;5035924;28;20054;-84
2021/05/07 08:35:23;;;;;;;5.20;4.05;;;9.10;97.60;;;;;;5035008;28;20033;-83
2021/05/07 08:37:48;;;;;;;6.82;4.32;;;9.20;97.30;;;;;;5032075;28;20035;-84
2021/05/07 08:40:16;;;;;;;7.03;4.57;;;9.40;97.30;;;;;;5039808;28;20100;-84
2021/05/07 08:42:43;;;;;;;7.47;4.10;;;9.40;97.60;;;;;;5055251;28;20017;-84
2021/05/07 08:45:10;;;;;;;5.75;4.30;;;9.50;96.90;;;;;;5072293;28;20461;-84
2021/05/07 08:47:36;;;;;;;7.25;3.95;;;9.60;96.70;;;;;;5063813;28;20545;-83
2021/05/07 08:50:06;;;;;;;4.38;3.40;;;9.70;96.90;;;;;;5070255;28;20017;-83
2021/05/07 08:52:33;;;;;;;6.43;3.47;;;9.80;96.00;;;;;;5056170;28;20119;-83
2021/05/07 08:54:59;;;;;;;5.15;3.60;;;9.90;94.90;;;;;;5055484;28;20679;-83
2021/05/07 08:57:25;;;;;;;6.20;3.22;;;10.00;96.20;;;;;;5020672;28;20025;-84
2021/05/07 08:59:51;;;;;;;6.55;3.45;;;10.10;96.10;;;;;;5038402;28;20029;-84
2021/05/07 09:02:32;;;;;;;5.45;3.25;;;10.20;94.80;;;;;;5055928;28;20072;-84
2021/05/07 09:04:59;;;;;;;4.90;2.92;;;10.20;95.70;;;;;;5060571;23;20051;-92
2021/05/07 09:07:26;;;;;;;5.45;3.10;;;10.20;95.30;;;;;;5076716;28;20028;-93
2021/05/07 09:10:02;;;;;;;5.00;2.83;;;10.30;95.00;;;;;;5078272;28;20016;-92
2021/05/07 09:12:31;;;;;;;6.45;3.25;;;10.40;95.10;;;;;;5072215;28;20377;-93
2021/05/07 09:14:58;;;;;;;4.57;3.10;;;10.50;95.40;;;;;;5085208;28;20024;-93
2021/05/07 09:17:26;;;;;;;4.95;3.05;;;10.60;93.70;;;;;;5086448;28;20020;-92
2021/05/07 09:20:30;;;;;;;4.32;2.55;;;10.60;92.90;;;;;;5070263;28;20131;-93
2021/05/07 09:23:02;;;;;;;5.82;2.75;;;10.70;92.40;;;;;;5064988;28;20020;-93
2021/05/07 09:25:28;;;;;;;5.50;2.78;;;10.70;91.90;;;;;;5060397;28;20366;-93
2021/05/07 09:28:05;;;;;;;5.43;2.55;;;10.80;93.70;;;;;;5076910;28;20034;-93
2021/05/07 09:30:31;;;;;;;4.25;2.63;;;10.90;93.60;;;;;;5080463;28;20020;-93
2021/05/07 09:32:57;;;;;;;4.25;2.53;;;11.00;93.70;;;;;;5064532;28;20028;-93
2021/05/07 09:35:30;;;;;;;4.20;2.45;;;11.10;91.80;;;;;;5080808;28;20020;-93
2021/05/07 09:38:12;;;;;;;6.28;2.47;;;11.20;93.10;;;;;;5061004;28;20017;-93
2021/05/07 09:40:41;;;;;;;4.35;2.20;;;11.20;93.10;;;;;;5053906;28;20021;-93
2021/05/07 09:43:13;;;;;;;4.25;2.20;;;11.30;92.20;;;;;;5080542;28;20012;-93
2021/05/07 09:45:45;;;;;;;5.25;2.60;;;11.40;92.30;;;;;;5074438;28;20023;-93
2021/05/07 09:48:21;;;;;;;3.85;2.20;;;11.50;93.10;;;;;;5060086;28;20056;-93
2021/05/07 09:50:48;;;;;;;4.45;2.08;;;11.60;91.50;;;;;;5062628;28;20036;-93
2021/05/07 09:53:22;;;;;;;4.32;2.40;;;11.70;90.40;;;;;;5059311;28;20036;-92
2021/05/07 09:55:53;;;;;;;4.28;2.60;;;11.80;91.00;;;;;;5074914;28;20039;-93
2021/05/07 09:58:19;;;;;;;3.78;2.45;;;11.80;90.20;;;;;;5066908;28;20039;-93
2021/05/07 10:00:45;;;;;;;5.30;2.63;;;11.90;91.10;;;;;;5053222;28;20624;-93
2021/05/07 10:03:10;;;;;;;6.03;2.40;;;11.90;91.10;;;;;;5076426;28;20020;-93
2021/05/07 10:05:37;;;;;;;4.63;2.33;;;12.00;89.30;;;;;;5085096;28;20039;-93
2021/05/07 10:08:04;;;;;;;5.63;2.47;;;12.00;87.50;;;;;;5085455;28;20030;-92
2021/05/07 10:10:38;;;;;;;3.60;2.20;;;12.10;89.40;;;;;;5072137;28;20153;-93
2021/05/07 10:13:32;;;;;;;3.20;2.22;;;12.10;88.10;;;;;;5045770;28;20088;-93
2021/05/07 10:16:04;;;;;;;5.63;2.30;;;12.20;88.10;;;;;;5074478;28;20047;-92
2021/05/07 10:18:40;;;;;;;2.90;2.15;;;12.30;89.10;;;;;;5090009;28;20024;-92
2021/05/07 10:21:13;;;;;;;5.70;2.50;;;12.40;86.40;;;;;;5061150;28;20023;-92
2021/05/07 10:24:17;;;;;;;3.05;2.00;;;12.50;88.30;;;;;;5045516;28;20020;-93
2021/05/07 10:26:51;;;;;;;5.13;2.83;;;12.60;86.50;;;;;;5075467;28;20020;-92
2021/05/07 10:29:27;;;;;;;4.35;2.30;;;12.70;84.40;;;;;;5093746;28;20035;-92
2021/05/07 10:31:57;;;;;;;5.53;2.30;;;12.60;87.10;;;;;;5064539;28;20036;-92
2021/05/07 10:34:25;;;;;;;3.63;2.33;;;12.60;86.30;;;;;;5060464;28;20033;-91
2021/05/07 10:36:53;;;;;;;4.78;2.38;;;12.50;85.70;;;;;;5077034;28;20059;-95
2021/05/07 10:39:31;;;;;;;3.17;2.08;;;12.50;86.20;;;;;;5073530;28;20042;-92
2021/05/07 10:41:59;;;;;;;4.30;2.13;;;12.60;85.40;;;;;;5070374;28;20458;-90
2021/05/07 10:44:27;;;;;;;4.53;2.13;;;12.70;86.10;;;;;;5071311;28;20024;-91
2021/05/07 10:46:59;;;;;;;4.90;2.10;;;12.80;85.50;;;;;;5072666;28;20073;-90
2021/05/07 10:49:33;;;;;;;3.55;1.90;;;12.90;79.90;;;;;;5101717;28;20461;-92
2021/05/07 10:51:58;;;;;;;2.50;1.70;;;13.00;75.60;;;;;;5084608;28;20127;-91
2021/05/07 10:54:39;;;;;;;3.65;1.95;;;13.00;79.30;;;;;;5060816;28;20082;-91
2021/05/07 10:57:21;;;;;;;3.75;1.80;;;13.00;76.00;;;;;;5078529;28;20024;-90
2021/05/07 10:59:55;;;;;;;4.18;1.92;;;13.00;76.90;;;;;;5081268;28;20085;-90
2021/05/07 11:02:20;;;;;;;4.90;2.13;;;13.00;78.80;;;;;;5059330;28;20040;-91
2021/05/07 11:04:48;;;;;;;6.10;3.22;;;13.10;81.40;;;;;;5109123;28;20036;-91
2021/05/07 11:07:26;;;;;;;4.78;2.45;;;13.10;80.50;;;;;;5087237;28;20027;-91
2021/05/07 11:10:07;;;;;;;5.28;2.40;;;13.10;78.40;;;;;;5061667;28;20029;-92
2021/05/07 11:12:36;;;;;;;3.42;2.00;;;13.00;76.80;;;;;;5071851;28;20497;-90
2021/05/07 11:15:02;;;;;;;3.97;1.90;;;13.00;80.00;;;;;;5060040;28;20119;-90
2021/05/07 11:17:27;;;;;;;5.53;2.10;;;12.90;76.30;;;;;;5066831;28;20078;-90
2021/05/07 11:19:53;;;;;;;4.22;2.15;;;12.90;76.00;;;;;;5053252;28;20062;-90
2021/05/07 11:22:29;;;;;;;3.53;2.00;;;12.90;74.30;;;;;;5049599;28;20028;-89
2021/05/07 11:24:55;;;;;;;3.90;2.10;;;12.90;78.70;;;;;;5062428;28;20089;-88
2021/05/07 11:27:23;;;;;;;3.35;2.10;;;12.80;77.70;;;;;;5071200;28;20028;-88
2021/05/07 11:29:50;;;;;;;4.28;2.13;;;12.80;78.30;;;;;;5078086;28;20040;-88
2021/05/07 11:32:21;;;;;;;3.25;2.22;;;12.90;79.50;;;;;;5048689;28;20134;-89
2021/05/07 11:35:08;;;;;;;4.68;2.53;;;13.10;81.00;;;;;;5080326;28;20032;-89
2021/05/07 11:37:34;;;;;;;4.32;2.30;;;13.30;78.30;;;;;;5097713;28;20024;-90
2021/05/07 11:40:09;;;;;;;4.38;2.50;;;13.40;78.60;;;;;;5064370;28;20073;-90
2021/05/07 11:42:39;;;;;;;4.18;2.35;;;13.40;76.20;;;;;;5102238;28;20019;-89
2021/05/07 11:45:34;;;;;;;4.88;2.45;;;13.50;77.50;;;;;;5088886;28;20054;-88
2021/05/07 11:48:06;;;;;;;4.40;2.00;;;13.40;73.30;;;;;;5065098;28;20048;-89
2021/05/07 11:50:32;;;;;;;4.28;2.40;;;13.40;74.40;;;;;;5081945;28;20024;-91
2021/05/07 11:52:58;;;;;;;4.78;2.45;;;13.40;73.60;;;;;;5098775;28;20083;-89
2021/05/07 11:55:27;;;;;;;6.63;2.30;;;13.50;78.40;;;;;;5079371;28;20429;-89
2021/05/07 11:58:02;;;;;;;5.30;2.15;;;13.70;75.20;;;;;;5081771;28;20049;-90
2021/05/07 12:00:31;;;;;;;4.28;2.03;;;13.80;71.20;;;;;;5100394;28;20020;-91
2021/05/07 12:03:24;;;;;;;4.18;2.55;;;13.90;74.70;;;;;;5099284;28;20342;-90
2021/05/07 12:05:49;;;;;;;4.13;2.60;;;14.10;74.50;;;;;;5093061;28;20044;-92
2021/05/07 12:08:26;;;;;;;4.82;2.53;;;14.20;67.60;;;;;;5053065;28;20032;-91
2021/05/07 12:10:51;;;;;;;4.47;2.10;;;14.20;70.70;;;;;;5111713;28;20081;-91
2021/05/07 12:13:22;;;;;;;3.60;2.17;;;14.20;70.50;;;;;;5076068;28;20024;-90
2021/05/07 12:15:57;;;;;;;4.65;2.55;;;14.30;71.80;;;;;;5109996;28;20020;-90
2021/05/07 12:18:24;;;;;;;5.28;2.50;;;14.40;69.70;;;;;;5071629;28;20027;-90
2021/05/07 12:20:56;;;;;;;3.92;1.95;;;14.50;71.10;;;;;;5074345;28;20028;-91
2021/05/07 12:23:26;;;;;;;3.95;1.95;;;14.70;72.70;;;;;;5074392;28;20024;-93
2021/05/07 12:25:51;;;;;;;2.97;1.92;;;14.80;69.60;;;;;;5083852;28;20016;-92
2021/05/07 12:28:20;;;;;;;5.55;2.15;;;14.90;66.30;;;;;;5065037;28;20017;-92
2021/05/07 12:30:47;;;;;;;3.85;2.00;;;14.80;67.50;;;;;;5061580;28;20059;-92
2021/05/07 12:33:17;;;;;;;4.32;1.70;;;14.80;63.60;;;;;;5046934;28;20036;-93
2021/05/07 12:35:49;;;;;;;3.28;1.70;;;14.70;67.10;;;;;;5086792;28;20066;-93
2021/05/07 12:38:24;;;;;;;2.67;1.92;;;14.70;68.30;;;;;;5082712;28;20028;-91
2021/05/07 12:41:33;;;;;;;2.80;1.60;;;14.80;64.20;;;;;;5066773;28;20020;-90
2021/05/07 12:43:59;;;;;;;4.15;1.73;;;14.80;59.90;;;;;;5074403;28;20021;-93
2021/05/07 12:46:25;;;;;;;2.95;1.67;;;14.80;63.10;;;;;;5049948;28;20020;-93
2021/05/07 12:48:56;;;;;;;3.50;2.00;;;14.80;61.20;;;;;;5060985;28;20060;-90
2021/05/07 12:51:22;;;;;;;;;;;14.70;62.40;;;;;;5071933;28;20027;-91
2021/05/07 12:53:49;;;;;;;2.40;1.65;;;14.70;59.80;;;;;;5071103;28;19908;-92
2021/05/07 12:56:16;;;;;;;3.92;1.90;;;14.60;62.50;;;;;;5065866;28;20113;-91
2021/05/07 12:58:43;;;;;;;2.70;1.38;;;14.70;62.00;;;;;;5074095;28;20031;-92
2021/05/07 13:01:10;;;;;;;2.33;1.67;;;14.80;61.90;;;;;;5071381;28;20016;-91
2021/05/07 13:03:36;;;;;;;4.13;1.90;;;14.90;62.20;;;;;;5059019;28;20516;-91
2021/05/07 13:06:02;;;;;;;3.25;1.70;;;15.00;60.30;;;;;;5042144;28;20033;-93
2021/05/07 13:08:29;;;;;;;2.75;1.90;;;15.10;57.60;;;;;;5065169;28;20055;-90